createdAt,value
2022-08-07T00:00:56.427Z,61.49
2022-08-07T00:05:04.008Z,62.97
2022-08-07T00:09:17.054Z,64.56
2022-08-07T00:13:25.834Z,67.18
2022-08-07T00:17:29.110Z,67.48
2022-08-07T00:21:56.106Z,68.91
2022-08-07T00:31:37.965Z,70.64
2022-08-07T00:35:49.045Z,71.64
2022-08-07T00:39:54.981Z,74.96
2022-08-07T00:44:01.015Z,75.75
2022-08-07T00:48:09.379Z,77.06
2022-08-07T00:52:13.581Z,77.53
2022-08-07T00:56:30.386Z,79.09
2022-08-07T01:00:36.111Z,79.23
2022-08-07T01:04:43.280Z,81.08
2022-08-07T01:08:53.588Z,83.50
2022-08-07T01:12:59.021Z,84.81
2022-08-07T01:17:04.231Z,88.00
2022-08-07T01:21:17.555Z,91.95
2022-08-07T01:25:54.559Z,90.02
2022-08-07T01:29:50.769Z,88.30
2022-08-07T01:34:02.089Z,89.39
2022-08-07T01:38:09.700Z,90.16
2022-08-07T01:42:40.121Z,92.99
2022-08-07T01:46:42.426Z,92.60
2022-08-07T01:50:50.115Z,91.47
2022-08-07T01:54:56.358Z,92.11
2022-08-07T01:59:09.433Z,96.52
2022-08-07T02:03:32.135Z,96.46
2022-08-07T02:07:53.111Z,100.00
2022-08-07T02:12:29.011Z,100.00
2022-08-07T02:16:37.127Z,100.00
2022-08-07T02:20:43.208Z,100.00
2022-08-07T02:24:53.334Z,100.00
2022-08-07T02:28:57.383Z,100.00
2022-08-07T02:33:09.574Z,100.00
2022-08-07T02:37:14.928Z,100.00
2022-08-07T02:41:21.787Z,100.00
2022-08-07T02:45:59.024Z,100.00
2022-08-07T02:49:57.498Z,100.00
2022-08-07T02:54:08.275Z,100.00
2022-08-07T02:58:17.276Z,100.00
2022-08-07T03:02:25.366Z,100.00
2022-08-07T03:06:33.139Z,100.00
2022-08-07T03:10:40.752Z,100.00
2022-08-07T03:14:52.106Z,100.00
2022-08-07T03:18:55.937Z,100.00
2022-08-07T03:22:59.623Z,100.00
2022-08-07T03:27:04.927Z,100.00
2022-08-07T03:31:19.659Z,100.00
2022-08-07T03:35:43.422Z,100.00
2022-08-07T03:39:59.421Z,100.00
2022-08-07T03:44:03.748Z,100.00
2022-08-07T03:48:10.126Z,100.00
2022-08-07T03:52:22.702Z,100.00
2022-08-07T03:56:34.284Z,100.00
2022-08-07T04:00:46.300Z,100.00
2022-08-07T04:04:54.933Z,100.00
2022-08-07T04:09:01.718Z,100.00
2022-08-07T04:13:07.700Z,100.00
2022-08-07T04:17:21.861Z,100.00
2022-08-07T04:21:31.176Z,100.00
2022-08-07T04:25:39.430Z,100.00
2022-08-07T04:29:58.473Z,100.00
2022-08-07T04:34:17.041Z,100.00
2022-08-07T04:38:26.751Z,100.00
2022-08-07T04:42:32.007Z,100.00
2022-08-07T04:46:40.035Z,100.00
2022-08-07T04:51:09.321Z,100.00
2022-08-07T04:58:10.761Z,100.00
2022-08-07T05:00:11.803Z,100.00
2022-08-07T05:04:54.709Z,100.00
2022-08-07T05:09:15.223Z,100.00
2022-08-07T05:14:54.050Z,100.00
2022-08-07T05:22:27.655Z,100.00
2022-08-07T05:26:34.317Z,100.00
2022-08-07T05:30:44.536Z,100.00
2022-08-07T05:34:52.097Z,100.00
2022-08-07T05:39:00.142Z,100.00
2022-08-07T05:43:11.621Z,100.00
2022-08-07T05:47:20.783Z,100.00
2022-08-07T05:51:25.326Z,100.00
2022-08-07T05:56:02.040Z,99.27
2022-08-07T06:00:01.569Z,98.24
2022-08-07T06:04:21.050Z,97.20
2022-08-07T06:08:31.578Z,96.03
2022-08-07T06:12:34.842Z,95.12
2022-08-07T06:16:39.053Z,94.35
2022-08-07T06:20:51.061Z,93.77
2022-08-07T06:25:10.250Z,91.07
2022-08-07T06:29:13.299Z,87.24
2022-08-07T06:33:16.688Z,87.23
2022-08-07T06:37:21.632Z,87.05
2022-08-07T06:42:01.998Z,84.94
2022-08-07T06:45:52.689Z,82.36
2022-08-07T06:49:58.449Z,81.05
2022-08-07T06:55:31.842Z,80.04
2022-08-07T06:58:30.125Z,79.96
2022-08-07T07:02:48.372Z,78.82
2022-08-07T07:07:01.348Z,78.75
2022-08-07T07:11:14.135Z,77.89
2022-08-07T07:15:32.554Z,77.35
2022-08-07T07:19:57.281Z,76.45
2022-08-07T07:24:06.106Z,76.08
2022-08-07T07:28:42.447Z,74.69
2022-08-07T07:32:45.209Z,73.79
2022-08-07T07:36:54.019Z,73.41
2022-08-07T07:41:02.665Z,74.45
2022-08-07T07:45:06.773Z,73.34
2022-08-07T07:50:36.409Z,72.08
2022-08-07T07:53:40.652Z,71.08
2022-08-07T07:57:58.464Z,71.58
2022-08-07T08:02:10.715Z,70.34
2022-08-07T08:06:14.265Z,70.53
2022-08-07T08:10:35.487Z,68.85
2022-08-07T08:14:45.217Z,68.09
2022-08-07T08:18:51.634Z,66.39
2022-08-07T08:23:15.267Z,66.51
2022-08-07T08:27:19.275Z,64.17
2022-08-07T08:31:58.470Z,65.60
2022-08-07T08:35:50.727Z,66.06
2022-08-07T08:39:58.648Z,65.06
2022-08-07T08:44:16.677Z,65.94
2022-08-07T08:49:02.070Z,64.13
2022-08-07T08:53:33.342Z,63.64
2022-08-07T08:57:42.400Z,61.69
2022-08-07T09:02:00.624Z,62.18
2022-08-07T09:06:11.647Z,62.23
2022-08-07T09:10:21.415Z,62.25
2022-08-07T09:14:37.841Z,61.30
2022-08-07T09:18:58.459Z,61.62
2022-08-07T09:24:33.733Z,59.98
2022-08-07T09:27:59.797Z,59.01
2022-08-07T09:32:20.950Z,57.71
2022-08-07T09:36:43.146Z,57.06
2022-08-07T09:41:07.989Z,56.59
2022-08-07T09:47:26.045Z,55.68
2022-08-07T09:50:44.378Z,54.95
2022-08-07T09:54:56.974Z,53.76
2022-08-07T09:59:35.670Z,52.39
2022-08-07T10:04:24.916Z,51.42
2022-08-07T10:08:59.219Z,51.02
2022-08-07T10:13:01.118Z,50.98
2022-08-07T10:18:01.349Z,49.54
2022-08-07T10:22:38.584Z,48.24
2022-08-07T10:27:18.088Z,48.40
2022-08-07T10:31:49.048Z,48.34
2022-08-07T10:36:17.997Z,45.95
2022-08-07T10:40:47.484Z,46.17
2022-08-07T10:45:11.900Z,46.33
2022-08-07T10:49:45.225Z,45.43
2022-08-07T10:54:13.242Z,46.44
2022-08-07T10:58:16.577Z,46.04
2022-08-07T11:02:34.097Z,45.02
2022-08-07T11:12:01.520Z,45.89
2022-08-07T11:16:15.488Z,45.36
2022-08-07T11:20:44.225Z,45.00
2022-08-07T11:25:06.656Z,44.01
2022-08-07T11:29:49.117Z,44.71
2022-08-07T11:34:12.958Z,43.78
2022-08-07T11:38:37.268Z,43.84
2022-08-07T11:42:51.052Z,43.57
2022-08-07T11:47:08.413Z,42.13
2022-08-07T11:52:19.798Z,42.99
2022-08-07T11:56:56.306Z,42.47
2022-08-07T12:01:05.253Z,41.59
2022-08-07T12:05:41.138Z,41.14
2022-08-07T12:10:02.234Z,40.36
2022-08-07T12:14:18.958Z,39.76
2022-08-07T12:18:36.480Z,40.26
2022-08-07T12:22:59.392Z,39.05
2022-08-07T12:27:27.993Z,38.55
2022-08-07T12:32:23.803Z,38.39
2022-08-07T12:36:32.719Z,38.91
2022-08-07T12:40:47.618Z,38.06
2022-08-07T12:44:51.816Z,37.91
2022-08-07T12:49:25.315Z,36.75
2022-08-07T12:54:36.586Z,37.45
2022-08-07T12:58:15.807Z,37.51
2022-08-07T13:02:50.643Z,37.85
2022-08-07T13:08:13.586Z,38.48
2022-08-07T13:12:02.253Z,39.50
2022-08-07T13:16:43.914Z,39.59
2022-08-07T13:20:59.559Z,40.69
2022-08-07T13:25:30.856Z,41.37
2022-08-07T13:29:42.382Z,41.70
2022-08-07T13:34:33.034Z,41.79
2022-08-07T13:38:24.764Z,42.43
2022-08-07T13:42:27.968Z,42.85
2022-08-07T13:46:37.623Z,43.81
2022-08-07T13:50:44.801Z,44.34
2022-08-07T13:55:19.467Z,45.81
2022-08-07T13:59:31.983Z,45.97
2022-08-07T14:04:07.194Z,46.82
2022-08-07T14:08:03.282Z,47.40
2022-08-07T14:12:10.424Z,48.44
2022-08-07T14:16:17.791Z,50.16
2022-08-07T14:54:09.735Z,56.59
2022-08-07T14:58:27.461Z,58.50
2022-08-07T15:06:53.420Z,58.84
2022-08-07T15:11:06.520Z,61.42
2022-08-07T15:15:17.393Z,60.20
2022-08-07T15:20:23.512Z,61.24
2022-08-07T15:25:15.196Z,61.14
2022-08-07T15:28:34.371Z,61.10
2022-08-07T15:32:50.810Z,61.11
2022-08-07T15:37:08.314Z,61.21
2022-08-07T15:45:57.367Z,62.70
2022-08-07T15:50:06.829Z,69.43
2022-08-07T15:54:11.912Z,73.54
2022-08-07T15:58:20.760Z,84.13
2022-08-07T16:02:27.646Z,89.12
2022-08-07T16:06:43.409Z,92.93
2022-08-07T16:10:49.851Z,95.33
2022-08-07T16:15:05.807Z,100.00
2022-08-07T16:19:42.769Z,100.00
2022-08-07T16:24:34.434Z,100.00
2022-08-07T16:30:08.533Z,100.00
2022-08-07T16:34:02.324Z,100.00
2022-08-07T16:38:05.477Z,100.00
2022-08-07T16:42:34.887Z,100.00
2022-08-07T16:47:05.748Z,100.00
2022-08-07T16:52:01.371Z,100.00
2022-08-07T16:55:53.812Z,100.00
2022-08-07T17:00:15.200Z,99.02
2022-08-07T17:04:50.819Z,87.96
2022-08-07T17:10:05.277Z,73.04
2022-08-07T17:14:19.017Z,65.00
2022-08-07T17:18:46.123Z,67.12
2022-08-07T17:23:01.215Z,64.79
2022-08-07T17:27:32.561Z,63.40
2022-08-07T17:31:44.347Z,68.91
2022-08-07T17:36:12.052Z,61.67
2022-08-07T17:40:31.200Z,54.72
2022-08-07T17:44:50.744Z,56.08
2022-08-07T17:49:09.417Z,53.16
2022-08-07T17:53:59.917Z,54.42
2022-08-07T17:57:56.448Z,57.79
2022-08-07T18:02:12.754Z,57.92
2022-08-07T18:06:38.214Z,58.02
2022-08-07T18:12:08.194Z,59.17
2022-08-07T18:15:53.584Z,63.96
2022-08-07T18:21:11.944Z,68.32
2022-08-07T18:24:43.208Z,72.41
2022-08-07T18:28:57.773Z,73.66
2022-08-07T18:33:36.944Z,79.75
2022-08-07T18:38:55.038Z,81.05
2022-08-07T18:42:55.602Z,87.78
2022-08-07T18:47:22.575Z,86.88
2022-08-07T18:52:35.318Z,88.44
2022-08-07T18:56:20.242Z,85.63
2022-08-07T19:00:59.401Z,89.14
2022-08-07T19:05:20.568Z,88.89
2022-08-07T19:09:55.552Z,94.08
2022-08-07T19:14:16.808Z,89.87
2022-08-07T19:18:34.657Z,88.55
2022-08-07T19:22:50.154Z,92.34
2022-08-07T19:31:59.924Z,90.42
2022-08-07T19:35:56.606Z,87.58
2022-08-07T19:40:02.585Z,85.01
2022-08-07T19:44:19.047Z,84.72
2022-08-07T19:48:53.582Z,87.27
2022-08-07T19:52:58.644Z,83.60
2022-08-07T19:58:02.107Z,83.46
2022-08-07T20:01:52.943Z,83.76
2022-08-07T20:05:59.781Z,84.29
2022-08-07T20:10:35.218Z,83.27
2022-08-07T20:14:32.761Z,84.15
2022-08-07T20:18:37.796Z,84.14
2022-08-07T20:22:46.278Z,84.22
2022-08-07T20:26:52.152Z,83.77
2022-08-07T20:30:59.275Z,87.29
2022-08-07T20:35:08.044Z,94.25
2022-08-07T20:40:03.378Z,97.44
2022-08-07T20:43:52.767Z,95.17
2022-08-07T20:48:02.611Z,94.96
2022-08-07T20:52:14.281Z,94.58
2022-08-07T20:56:26.322Z,95.57
2022-08-07T21:00:47.350Z,100.00
2022-08-07T21:04:51.293Z,96.79
2022-08-07T21:09:03.594Z,97.18
2022-08-07T21:13:24.644Z,96.54
2022-08-07T21:18:02.841Z,97.36
2022-08-07T21:22:14.764Z,96.80
2022-08-07T21:27:01.746Z,100.00
2022-08-07T21:31:15.892Z,100.00
2022-08-07T21:36:05.102Z,99.67
2022-08-07T21:40:12.382Z,100.00
2022-08-07T21:44:28.385Z,100.00
2022-08-07T21:48:57.503Z,100.00
2022-08-07T21:53:11.880Z,100.00
2022-08-07T21:57:52.435Z,100.00
2022-08-07T22:02:24.115Z,100.00
2022-08-07T22:06:33.691Z,97.76
2022-08-07T22:10:38.530Z,99.10
2022-08-07T22:15:01.922Z,100.00
2022-08-07T22:19:30.380Z,100.00
2022-08-07T22:23:43.702Z,100.00
2022-08-07T22:28:29.704Z,100.00
2022-08-07T22:32:53.728Z,100.00
2022-08-07T22:37:05.030Z,100.00
2022-08-07T22:41:20.011Z,100.00
2022-08-07T22:46:21.812Z,98.81
2022-08-07T22:50:29.193Z,98.55
2022-08-07T22:54:54.681Z,98.17
2022-08-07T22:59:32.678Z,98.03
2022-08-07T23:04:09.669Z,97.44
2022-08-07T23:08:55.723Z,98.57
2022-08-07T23:13:21.686Z,100.00
2022-08-07T23:17:50.777Z,100.00
2022-08-07T23:22:00.712Z,98.90
2022-08-07T23:26:14.972Z,99.18
2022-08-07T23:30:37.670Z,99.17
2022-08-07T23:35:02.482Z,100.00
2022-08-07T23:39:36.354Z,100.00
2022-08-07T23:44:00.769Z,100.00
2022-08-07T23:48:20.545Z,100.00
2022-08-07T23:52:58.741Z,98.67
2022-08-07T23:57:19.863Z,100.00
